createdAt,value
2022-08-18T00:01:18.842Z,6.13
2022-08-18T00:03:57.360Z,6.07
2022-08-18T00:06:30.112Z,6.37
2022-08-18T00:09:00.711Z,5.67
2022-08-18T00:11:41.417Z,7.37
2022-08-18T00:14:22.193Z,8.97
2022-08-18T00:16:55.788Z,7.50
2022-08-18T00:19:46.923Z,6.20
2022-08-18T00:22:18.482Z,6.00
2022-08-18T00:24:50.528Z,5.07
2022-08-18T00:27:28.605Z,8.47
2022-08-18T00:30:01.058Z,7.73
2022-08-18T00:32:34.149Z,6.33
2022-08-18T00:35:10.252Z,6.50
2022-08-18T00:37:39.430Z,6.20
2022-08-18T00:40:12.370Z,5.67
2022-08-18T00:42:46.257Z,7.10
2022-08-18T00:45:23.923Z,8.20
2022-08-18T00:47:55.437Z,7.57
2022-08-18T00:50:34.194Z,6.53
2022-08-18T00:53:08.219Z,6.07
2022-08-18T00:55:37.892Z,5.80
2022-08-18T00:58:17.211Z,6.40
2022-08-18T01:00:47.915Z,7.63
2022-08-18T01:03:24.588Z,8.93
2022-08-18T01:06:00.104Z,5.73
2022-08-18T01:08:29.736Z,5.67
2022-08-18T01:11:02.758Z,5.30
2022-08-18T01:13:35.069Z,5.93
2022-08-18T01:16:25.683Z,6.00
2022-08-18T01:19:12.278Z,8.37
2022-08-18T01:21:53.832Z,5.50
2022-08-18T01:24:44.101Z,6.60
2022-08-18T01:27:19.052Z,6.50
2022-08-18T01:29:50.642Z,6.30
2022-08-18T01:32:23.644Z,6.00
2022-08-18T01:34:55.144Z,6.97
2022-08-18T01:37:25.998Z,6.47
2022-08-18T01:41:21.074Z,7.60
2022-08-18T01:42:47.061Z,7.80
2022-08-18T01:45:18.353Z,7.10
2022-08-18T01:47:58.361Z,6.07
2022-08-18T01:50:28.088Z,10.87
2022-08-18T01:52:56.680Z,6.67
2022-08-18T01:55:28.920Z,6.27
2022-08-18T01:57:58.047Z,7.13
2022-08-18T02:00:26.560Z,6.57
2022-08-18T02:03:01.957Z,8.10
2022-08-18T02:05:43.811Z,6.23
2022-08-18T02:08:13.711Z,9.50
2022-08-18T02:10:45.802Z,8.47
2022-08-18T02:13:14.394Z,7.37
2022-08-18T02:15:43.159Z,6.63
2022-08-18T02:18:37.205Z,7.77
2022-08-18T02:25:37.302Z,7.07
2022-08-18T02:32:59.680Z,8.63
2022-08-18T02:35:28.296Z,9.07
2022-08-18T02:38:00.074Z,6.80
2022-08-18T02:44:59.758Z,7.40
2022-08-18T02:47:33.459Z,7.60
2022-08-18T02:50:03.752Z,7.03
2022-08-18T02:57:22.378Z,6.90
2022-08-18T03:04:30.402Z,8.60
2022-08-18T03:07:04.615Z,7.00
2022-08-18T03:14:03.652Z,6.90
2022-08-18T03:16:32.906Z,6.70
2022-08-18T03:23:33.100Z,9.50
2022-08-18T03:26:01.914Z,6.70
2022-08-18T03:33:02.356Z,8.17
2022-08-18T03:35:37.649Z,8.20
2022-08-18T03:51:47.185Z,9.03
2022-08-18T03:54:18.081Z,6.97
2022-08-18T03:56:49.500Z,6.97
2022-08-18T04:03:49.861Z,7.07
2022-08-18T04:06:30.147Z,7.70
2022-08-18T04:13:19.891Z,7.50
2022-08-18T04:15:48.379Z,7.90
2022-08-18T04:18:42.373Z,7.40
2022-08-18T04:21:14.523Z,9.53
2022-08-18T04:28:13.490Z,7.97
2022-08-18T04:30:43.507Z,7.60
2022-08-18T04:37:49.500Z,7.70
2022-08-18T04:40:24.329Z,7.03
2022-08-18T04:43:02.836Z,7.40
2022-08-18T04:45:32.426Z,6.97
2022-08-18T04:48:02.426Z,11.30
2022-08-18T04:55:03.254Z,7.27
2022-08-18T04:57:34.777Z,7.30
2022-08-18T05:04:53.455Z,9.20
2022-08-18T05:07:23.974Z,8.10
2022-08-18T05:09:55.090Z,10.47
2022-08-18T05:12:25.880Z,8.07
2022-08-18T05:19:26.045Z,7.10
2022-08-18T05:21:57.673Z,8.63
2022-08-18T05:24:37.071Z,7.57
2022-08-18T05:31:33.211Z,13.53
2022-08-18T05:34:04.181Z,18.40
2022-08-18T05:45:54.592Z,24.90
2022-08-18T05:48:23.392Z,11.73
2022-08-18T05:50:53.082Z,17.07
2022-08-18T05:58:16.180Z,13.33
2022-08-18T06:00:57.510Z,13.47
2022-08-18T06:08:06.069Z,13.87
2022-08-18T06:10:35.497Z,17.77
2022-08-18T06:13:09.163Z,12.50
2022-08-18T06:20:29.988Z,11.83
2022-08-18T06:23:26.366Z,11.37
2022-08-18T06:26:08.982Z,9.53
2022-08-18T06:33:37.034Z,9.07
2022-08-18T06:40:42.149Z,11.27
2022-08-18T06:43:17.159Z,11.47
2022-08-18T06:50:27.731Z,9.13
2022-08-18T06:57:30.533Z,10.87
2022-08-18T07:00:05.758Z,12.07
2022-08-18T07:12:06.862Z,8.77
2022-08-18T07:14:48.219Z,6.87
2022-08-18T07:17:43.407Z,21.00
2022-08-18T07:24:47.085Z,15.53
2022-08-18T07:27:19.027Z,6.23
2022-08-18T07:30:06.500Z,7.90
2022-08-18T07:41:59.846Z,5.60
2022-08-18T07:49:05.488Z,6.47
2022-08-18T07:51:53.074Z,6.85
2022-08-18T07:58:56.062Z,6.47
2022-08-18T08:01:38.721Z,7.15
2022-08-18T08:13:54.733Z,9.00
2022-08-18T08:16:38.889Z,5.50
2022-08-18T08:23:45.072Z,5.38
2022-08-18T08:26:37.856Z,5.32
2022-08-18T08:38:42.977Z,6.22
2022-08-18T08:42:30.845Z,6.28
2022-08-18T08:50:21.647Z,5.25
2022-08-18T09:02:46.713Z,4.60
2022-08-18T09:05:19.745Z,9.23
2022-08-18T09:08:14.614Z,4.90
2022-08-18T09:11:15.547Z,6.20
2022-08-18T09:14:17.711Z,5.70
2022-08-18T09:21:44.434Z,5.00
2022-08-18T09:24:29.119Z,6.70
2022-08-18T09:27:27.996Z,7.20
2022-08-18T09:34:51.445Z,5.43
2022-08-18T09:37:27.203Z,6.15
2022-08-18T09:45:02.482Z,5.47
2022-08-18T09:48:43.852Z,5.80
2022-08-18T09:56:01.687Z,7.80
2022-08-18T09:58:58.869Z,6.55
2022-08-18T10:01:41.329Z,5.20
2022-08-18T10:09:01.925Z,4.82
2022-08-18T10:17:13.161Z,6.57
2022-08-18T10:24:38.176Z,5.95
2022-08-18T10:32:38.148Z,7.10
2022-08-18T10:35:52.633Z,4.55
2022-08-18T10:38:30.980Z,5.40
2022-08-18T10:45:59.394Z,4.63
2022-08-18T10:48:35.865Z,4.47
2022-08-18T10:51:22.899Z,7.20
2022-08-18T10:54:01.898Z,5.10
2022-08-18T11:01:16.078Z,6.28
2022-08-18T11:08:48.043Z,5.15
2022-08-18T11:11:33.639Z,6.82
2022-08-18T11:18:45.459Z,4.95
2022-08-18T11:21:34.247Z,5.63
2022-08-18T11:24:19.434Z,5.75
2022-08-18T11:35:54.027Z,6.47
2022-08-18T11:38:23.579Z,8.10
2022-08-18T11:45:57.556Z,8.05
2022-08-18T11:48:51.911Z,6.32
2022-08-18T11:51:25.527Z,6.05
2022-08-18T11:54:01.100Z,4.75
2022-08-18T11:59:55.114Z,5.78
2022-08-18T12:07:11.138Z,5.38
2022-08-18T12:10:16.665Z,7.88
2022-08-18T12:17:10.700Z,5.82
2022-08-18T12:19:39.741Z,6.18
2022-08-18T12:22:19.863Z,5.40
2022-08-18T12:24:49.283Z,5.20
2022-08-18T12:27:21.439Z,5.00
2022-08-18T12:29:52.171Z,5.05
2022-08-18T12:32:50.138Z,4.47
2022-08-18T12:35:13.294Z,5.57
2022-08-18T12:42:08.144Z,6.57
2022-08-18T12:44:39.476Z,6.55
2022-08-18T12:47:15.107Z,4.88
2022-08-18T12:54:12.665Z,4.68
2022-08-18T12:56:42.793Z,5.93
2022-08-18T12:59:12.689Z,5.45
2022-08-18T13:06:34.841Z,5.45
2022-08-18T13:09:03.584Z,5.90
2022-08-18T13:11:45.091Z,5.05
2022-08-18T13:19:05.978Z,6.20
2022-08-18T13:21:41.170Z,4.90
2022-08-18T13:24:12.728Z,5.25
2022-08-18T13:26:46.192Z,4.68
2022-08-18T13:29:17.566Z,4.97
2022-08-18T13:31:56.178Z,6.47
2022-08-18T13:34:29.919Z,5.18
2022-08-18T13:36:59.122Z,5.18
2022-08-18T13:39:33.625Z,7.60
2022-08-18T13:42:26.303Z,4.40
2022-08-18T13:53:50.375Z,4.78
2022-08-18T13:56:20.668Z,4.78
2022-08-18T13:59:00.193Z,5.97
2022-08-18T14:01:51.595Z,5.20
2022-08-18T14:09:19.617Z,5.63
2022-08-18T14:11:56.770Z,5.97
2022-08-18T14:14:26.657Z,7.78
2022-08-18T14:16:56.358Z,4.95
2022-08-18T14:19:42.957Z,5.03
2022-08-18T14:22:29.217Z,5.05
2022-08-18T14:25:16.173Z,6.22
2022-08-18T14:42:41.346Z,11.73
2022-08-18T14:45:26.590Z,16.38
2022-08-18T15:02:00.866Z,14.77
2022-08-18T15:04:30.738Z,12.80
2022-08-18T15:06:59.986Z,9.63
2022-08-18T15:09:30.379Z,19.10
2022-08-18T15:16:51.348Z,6.50
2022-08-18T15:19:58.553Z,6.32
2022-08-18T15:38:35.393Z,5.70
2022-08-18T15:41:06.277Z,5.63
2022-08-18T15:43:40.049Z,5.30
2022-08-18T15:50:53.098Z,7.30
2022-08-18T15:53:29.626Z,7.18
2022-08-18T15:56:04.186Z,5.55
2022-08-18T16:07:41.175Z,7.03
2022-08-18T16:10:14.955Z,6.22
2022-08-18T16:12:46.462Z,8.93
2022-08-18T16:15:19.605Z,6.00
2022-08-18T16:17:52.337Z,8.18
2022-08-18T16:20:23.796Z,6.18
2022-08-18T16:31:53.276Z,5.35
2022-08-18T16:34:22.275Z,5.30
2022-08-18T16:36:50.981Z,5.65
2022-08-18T16:39:19.636Z,7.90
2022-08-18T16:41:49.109Z,6.82
2022-08-18T16:48:59.443Z,6.78
2022-08-18T16:55:57.544Z,7.20
2022-08-18T16:58:43.530Z,50.97
2022-08-18T17:10:29.351Z,73.28
2022-08-18T17:12:58.982Z,38.75
2022-08-18T17:15:32.458Z,12.25
2022-08-18T17:18:02.998Z,6.55
2022-08-18T17:20:34.526Z,6.30
2022-08-18T17:36:54.961Z,11.20
2022-08-18T17:39:30.689Z,7.07
2022-08-18T17:42:16.647Z,12.95
2022-08-18T17:44:52.672Z,5.90
2022-08-18T17:47:37.213Z,6.45
2022-08-18T17:55:02.924Z,9.17
2022-08-18T18:11:48.497Z,5.47
2022-08-18T18:14:27.739Z,5.83
2022-08-18T18:17:12.763Z,5.77
2022-08-18T18:19:44.515Z,6.90
2022-08-18T18:22:24.240Z,6.03
2022-08-18T18:24:55.751Z,6.00
2022-08-18T18:32:02.770Z,5.77
2022-08-18T18:34:39.714Z,6.27
2022-08-18T18:41:42.640Z,4.90
2022-08-18T18:44:15.220Z,5.30
2022-08-18T18:51:33.435Z,4.00
2022-08-18T18:54:18.108Z,4.40
2022-08-18T18:56:54.032Z,6.23
2022-08-18T18:59:41.084Z,6.20
2022-08-18T19:02:33.234Z,4.43
2022-08-18T19:09:32.717Z,5.73
2022-08-18T19:12:17.092Z,6.53
2022-08-18T19:24:10.274Z,8.43
2022-08-18T19:26:50.631Z,5.33
2022-08-18T19:29:27.369Z,5.03
2022-08-18T19:32:16.916Z,6.53
2022-08-18T19:39:18.111Z,4.97
2022-08-18T19:42:01.956Z,8.23
2022-08-18T19:49:04.642Z,4.40
2022-08-18T19:51:37.646Z,8.20
2022-08-18T19:59:18.592Z,5.27
2022-08-18T20:06:52.184Z,5.13
2022-08-18T20:09:51.592Z,4.70
2022-08-18T20:16:43.840Z,8.10
2022-08-18T20:19:59.635Z,5.33
2022-08-18T20:27:40.083Z,5.23
2022-08-18T20:30:29.724Z,6.33
2022-08-18T20:33:30.911Z,4.27
2022-08-18T20:36:27.041Z,6.23
2022-08-18T20:43:31.826Z,8.93
2022-08-18T20:46:22.629Z,4.30
2022-08-18T20:49:13.274Z,5.27
2022-08-18T20:56:32.113Z,4.57
2022-08-18T20:59:20.064Z,4.43
2022-08-18T21:06:32.724Z,4.33
2022-08-18T21:09:02.731Z,4.87
2022-08-18T21:20:41.151Z,5.37
2022-08-18T21:23:15.067Z,7.03
2022-08-18T21:34:52.732Z,6.67
2022-08-18T21:42:21.207Z,6.33
2022-08-18T21:49:24.832Z,6.07
2022-08-18T21:56:49.116Z,6.33
2022-08-18T21:59:21.466Z,5.93
2022-08-18T22:01:53.064Z,6.13
2022-08-18T22:04:33.543Z,5.90
2022-08-18T22:16:36.288Z,4.90
2022-08-18T22:23:57.603Z,6.07
2022-08-18T22:26:30.703Z,5.33
2022-08-18T22:29:05.454Z,7.13
2022-08-18T22:36:06.495Z,5.20
2022-08-18T22:38:35.804Z,6.63
2022-08-18T22:46:01.962Z,6.77
2022-08-18T22:48:30.607Z,5.60
2022-08-18T22:50:59.255Z,7.20
2022-08-18T22:53:29.905Z,5.27
2022-08-18T23:00:49.747Z,6.67
2022-08-18T23:03:18.479Z,9.10
2022-08-18T23:05:47.568Z,5.40
2022-08-18T23:08:16.152Z,5.30
2022-08-18T23:15:43.876Z,5.17
2022-08-18T23:18:12.839Z,5.90
2022-08-18T23:25:13.472Z,6.07
2022-08-18T23:27:42.572Z,7.83
2022-08-18T23:30:12.418Z,4.73
2022-08-18T23:32:43.735Z,5.37
2022-08-18T23:35:12.299Z,6.20
2022-08-18T23:42:12.317Z,5.63
2022-08-18T23:44:43.379Z,5.30
2022-08-18T23:47:11.932Z,5.40
2022-08-18T23:54:19.784Z,5.73
2022-08-18T23:56:49.324Z,5.50
2022-08-18T23:59:20.536Z,5.50
